sensor_id;sensor_type;location;lat;lon;timestamp;pressure;altitude;pressure_sealevel;temperature;humidity
48774;BME280;34576;0.000;0.000;2022-11-04T00:06:24;95872.88;;;17.88;70.10
48774;BME280;34576;0.000;0.000;2022-11-04T00:13:24;95880.56;;;17.89;70.16
48774;BME280;34576;0.000;0.000;2022-11-04T00:20:27;95889.63;;;17.88;70.33
48774;BME280;34576;0.000;0.000;2022-11-04T00:27:46;95875.78;;;17.91;69.92
48774;BME280;34576;0.000;0.000;2022-11-04T00:35:05;95886.66;;;17.90;69.91
48774;BME280;34576;0.000;0.000;2022-11-04T00:42:05;95884.00;;;17.90;69.93
48774;BME280;34576;0.000;0.000;2022-11-04T00:49:05;95870.47;;;17.91;69.98
48774;BME280;34576;0.000;0.000;2022-11-04T00:56:06;95875.78;;;17.91;70.15
48774;BME280;34576;0.000;0.000;2022-11-04T01:03:06;95873.13;;;17.91;70.35
48774;BME280;34576;0.000;0.000;2022-11-04T01:10:06;95881.13;;;17.91;69.96
48774;BME280;34576;0.000;0.000;2022-11-04T01:17:07;95885.63;;;17.91;69.81
48774;BME280;34576;0.000;0.000;2022-11-04T01:24:07;95888.56;;;17.89;70.20
48774;BME280;34576;0.000;0.000;2022-11-04T01:31:11;95886.13;;;18.07;69.75
48774;BME280;34576;0.000;0.000;2022-11-04T01:38:12;95894.81;;;17.99;69.79
48774;BME280;34576;0.000;0.000;2022-11-04T01:45:14;95885.84;;;17.94;70.35
48774;BME280;34576;0.000;0.000;2022-11-04T01:52:19;95859.03;;;17.91;69.88
48774;BME280;34576;0.000;0.000;2022-11-04T01:59:26;95858.25;;;17.90;70.22
48774;BME280;34576;0.000;0.000;2022-11-04T02:06:27;95866.69;;;17.92;70.05
48774;BME280;34576;0.000;0.000;2022-11-04T02:13:29;95862.72;;;17.90;70.29
48774;BME280;34576;0.000;0.000;2022-11-04T02:21:20;95856.88;;;17.93;69.92
48774;BME280;34576;0.000;0.000;2022-11-04T02:42:01;95852.91;;;17.90;70.24
48774;BME280;34576;0.000;0.000;2022-11-04T02:49:13;95851.31;;;17.89;69.67
48774;BME280;34576;0.000;0.000;2022-11-04T02:56:16;95848.16;;;17.87;69.95
48774;BME280;34576;0.000;0.000;2022-11-04T03:03:20;95840.66;;;17.89;70.01
48774;BME280;34576;0.000;0.000;2022-11-04T03:10:27;95849.72;;;17.88;69.52
48774;BME280;34576;0.000;0.000;2022-11-04T03:17:31;95835.16;;;17.86;69.87
48774;BME280;34576;0.000;0.000;2022-11-04T03:24:35;95838.31;;;17.88;69.92
48774;BME280;34576;0.000;0.000;2022-11-04T03:31:39;95824.22;;;17.87;69.54
48774;BME280;34576;0.000;0.000;2022-11-04T03:38:43;95831.91;;;17.89;69.97
48774;BME280;34576;0.000;0.000;2022-11-04T03:45:43;95819.97;;;17.86;69.95
48774;BME280;34576;0.000;0.000;2022-11-04T03:52:44;95830.78;;;17.90;69.22
48774;BME280;34576;0.000;0.000;2022-11-04T04:06:45;95833.47;;;17.90;69.54
48774;BME280;34576;0.000;0.000;2022-11-04T04:21:04;95826.88;;;17.87;69.92
48774;BME280;34576;0.000;0.000;2022-11-04T04:28:07;95824.69;;;17.89;69.65
48774;BME280;34576;0.000;0.000;2022-11-04T04:35:08;95814.34;;;17.88;69.55
48774;BME280;34576;0.000;0.000;2022-11-04T04:42:33;95811.69;;;17.88;69.74
48774;BME280;34576;0.000;0.000;2022-11-04T04:49:56;95792.28;;;17.87;69.75
48774;BME280;34576;0.000;0.000;2022-11-04T04:56:57;95772.09;;;17.86;69.48
48774;BME280;34576;0.000;0.000;2022-11-04T05:03:57;95750.81;;;17.86;69.45
48774;BME280;34576;0.000;0.000;2022-11-04T05:10:57;95757.72;;;17.87;69.25
48774;BME280;34576;0.000;0.000;2022-11-04T05:17:59;95751.44;;;17.97;71.35
48774;BME280;34576;0.000;0.000;2022-11-04T05:24:59;95743.16;;;17.99;72.18
48774;BME280;34576;0.000;0.000;2022-11-04T05:32:00;95735.63;;;18.01;72.55
48774;BME280;34576;0.000;0.000;2022-11-04T05:39:00;95746.28;;;18.01;72.92
48774;BME280;34576;0.000;0.000;2022-11-04T05:46:00;95743.31;;;18.02;72.93
48774;BME280;34576;0.000;0.000;2022-11-04T05:53:01;95732.50;;;17.99;73.46
48774;BME280;34576;0.000;0.000;2022-11-04T06:00:01;95714.34;;;18.01;74.18
48774;BME280;34576;0.000;0.000;2022-11-04T06:07:04;95722.03;;;18.02;74.53
48774;BME280;34576;0.000;0.000;2022-11-04T06:14:05;95716.72;;;18.02;74.49
48774;BME280;34576;0.000;0.000;2022-11-04T06:28:14;95739.59;;;18.03;74.48
48774;BME280;34576;0.000;0.000;2022-11-04T06:35:14;95744.13;;;18.03;75.11
48774;BME280;34576;0.000;0.000;2022-11-04T06:42:15;95753.88;;;18.07;75.28
48774;BME280;34576;0.000;0.000;2022-11-04T06:49:16;95756.41;;;17.43;64.82
48774;BME280;34576;0.000;0.000;2022-11-04T06:56:17;95774.81;;;13.49;62.94
48774;BME280;34576;0.000;0.000;2022-11-04T07:03:18;95772.13;;;13.75;61.30
48774;BME280;34576;0.000;0.000;2022-11-04T07:10:18;95754.72;;;15.32;59.05
48774;BME280;34576;0.000;0.000;2022-11-04T07:17:18;95750.88;;;16.54;63.65
48774;BME280;34576;0.000;0.000;2022-11-04T07:24:19;95747.06;;;16.80;64.63
48774;BME280;34576;0.000;0.000;2022-11-04T07:31:19;95743.19;;;16.91;65.15
48774;BME280;34576;0.000;0.000;2022-11-04T07:38:21;95737.72;;;17.01;65.13
48774;BME280;34576;0.000;0.000;2022-11-04T07:45:21;95730.44;;;17.07;65.60
48774;BME280;34576;0.000;0.000;2022-11-04T07:52:22;95723.47;;;17.11;65.86
48774;BME280;34576;0.000;0.000;2022-11-04T07:59:23;95713.53;;;17.17;65.81
48774;BME280;34576;0.000;0.000;2022-11-04T08:06:23;95703.72;;;17.17;66.03
48774;BME280;34576;0.000;0.000;2022-11-04T08:13:26;95692.19;;;17.22;66.23
48774;BME280;34576;0.000;0.000;2022-11-04T08:20:26;95682.03;;;17.24;66.22
48774;BME280;34576;0.000;0.000;2022-11-04T08:27:26;95691.31;;;17.27;66.18
48774;BME280;34576;0.000;0.000;2022-11-04T08:34:27;95692.28;;;17.31;66.47
48774;BME280;34576;0.000;0.000;2022-11-04T08:41:28;95682.25;;;17.28;66.83
48774;BME280;34576;0.000;0.000;2022-11-04T08:48:29;95694.44;;;17.29;66.82
48774;BME280;34576;0.000;0.000;2022-11-04T08:55:30;95704.50;;;17.32;66.65
48774;BME280;34576;0.000;0.000;2022-11-04T09:02:31;95705.88;;;17.29;66.84
48774;BME280;34576;0.000;0.000;2022-11-04T09:09:32;95709.81;;;17.32;66.59
48774;BME280;34576;0.000;0.000;2022-11-04T09:16:33;95710.81;;;17.36;66.63
48774;BME280;34576;0.000;0.000;2022-11-04T09:23:34;95718.38;;;17.42;66.62
48774;BME280;34576;0.000;0.000;2022-11-04T09:30:35;95716.03;;;17.41;66.50
48774;BME280;34576;0.000;0.000;2022-11-04T09:37:35;95711.78;;;17.40;66.70
48774;BME280;34576;0.000;0.000;2022-11-04T09:44:41;95700.38;;;17.39;66.52
48774;BME280;34576;0.000;0.000;2022-11-04T09:51:43;95705.22;;;17.37;66.80
48774;BME280;34576;0.000;0.000;2022-11-04T09:58:45;95710.91;;;17.45;66.47
48774;BME280;34576;0.000;0.000;2022-11-04T10:20:20;95704.72;;;17.49;66.83
48774;BME280;34576;0.000;0.000;2022-11-04T10:27:24;95713.75;;;17.48;67.08
48774;BME280;34576;0.000;0.000;2022-11-04T10:34:31;95709.81;;;17.46;66.96
48774;BME280;34576;0.000;0.000;2022-11-04T10:41:34;95704.50;;;17.46;67.04
48774;BME280;34576;0.000;0.000;2022-11-04T10:48:42;95697.63;;;17.45;67.04
48774;BME280;34576;0.000;0.000;2022-11-04T10:55:46;95700.00;;;17.46;66.88
48774;BME280;34576;0.000;0.000;2022-11-04T11:02:48;95693.09;;;17.45;66.87
48774;BME280;34576;0.000;0.000;2022-11-04T11:09:49;95696.22;;;17.47;66.78
48774;BME280;34576;0.000;0.000;2022-11-04T11:16:51;95692.50;;;17.48;66.77
48774;BME280;34576;0.000;0.000;2022-11-04T11:23:51;95699.88;;;17.51;66.72
48774;BME280;34576;0.000;0.000;2022-11-04T11:30:54;95694.56;;;17.51;66.66
48774;BME280;34576;0.000;0.000;2022-11-04T11:37:56;95692.69;;;17.52;66.88
48774;BME280;34576;0.000;0.000;2022-11-04T11:44:57;95691.91;;;17.51;66.67
48774;BME280;34576;0.000;0.000;2022-11-04T11:53:05;95691.91;;;17.51;66.76
48774;BME280;34576;0.000;0.000;2022-11-04T12:00:14;95688.16;;;17.52;66.64
48774;BME280;34576;0.000;0.000;2022-11-04T12:06:53;95688.16;;;17.52;66.72
48774;BME280;34576;0.000;0.000;2022-11-04T12:13:56;95680.97;;;17.53;66.73
48774;BME280;34576;0.000;0.000;2022-11-04T12:42:37;95681.25;;;17.51;66.56
48774;BME280;34576;0.000;0.000;2022-11-04T12:56:42;95710.81;;;17.50;66.38
48774;BME280;34576;0.000;0.000;2022-11-04T13:03:51;95709.13;;;17.54;66.23
48774;BME280;34576;0.000;0.000;2022-11-04T13:18:03;95708.94;;;17.64;65.94
48774;BME280;34576;0.000;0.000;2022-11-04T13:25:06;95709.81;;;17.59;66.15
48774;BME280;34576;0.000;0.000;2022-11-04T13:32:26;95706.38;;;17.59;66.17
48774;BME280;34576;0.000;0.000;2022-11-04T13:39:30;95705.59;;;17.58;66.18
48774;BME280;34576;0.000;0.000;2022-11-04T13:46:33;95714.16;;;17.55;66.04
48774;BME280;34576;0.000;0.000;2022-11-04T13:53:47;95714.84;;;17.61;65.99
48774;BME280;34576;0.000;0.000;2022-11-04T14:08:11;95726.84;;;17.58;66.01
48774;BME280;34576;0.000;0.000;2022-11-04T14:15:12;95724.19;;;17.58;65.90
48774;BME280;34576;0.000;0.000;2022-11-04T14:22:15;95733.56;;;17.56;66.15
48774;BME280;34576;0.000;0.000;2022-11-04T14:29:17;95740.16;;;17.58;66.11
48774;BME280;34576;0.000;0.000;2022-11-04T14:43:29;95743.41;;;17.55;66.09
48774;BME280;34576;0.000;0.000;2022-11-04T14:50:30;95755.91;;;17.55;66.13
48774;BME280;34576;0.000;0.000;2022-11-04T14:57:38;95763.13;;;17.54;66.42
48774;BME280;34576;0.000;0.000;2022-11-04T15:04:38;95770.00;;;17.55;66.11
48774;BME280;34576;0.000;0.000;2022-11-04T15:11:44;95778.78;;;17.56;66.20
48774;BME280;34576;0.000;0.000;2022-11-04T15:19:03;95786.25;;;17.54;66.21
48774;BME280;34576;0.000;0.000;2022-11-04T15:26:13;95794.72;;;17.56;66.23
48774;BME280;34576;0.000;0.000;2022-11-04T15:33:15;95795.50;;;17.56;66.26
48774;BME280;34576;0.000;0.000;2022-11-04T15:40:16;95796.88;;;17.54;66.45
48774;BME280;34576;0.000;0.000;2022-11-04T15:54:21;95817.97;;;17.50;66.29
48774;BME280;34576;0.000;0.000;2022-11-04T16:01:26;95835.00;;;17.49;66.13
48774;BME280;34576;0.000;0.000;2022-11-04T16:08:28;95840.31;;;17.49;65.98
48774;BME280;34576;0.000;0.000;2022-11-04T16:15:42;95854.19;;;17.46;66.17
48774;BME280;34576;0.000;0.000;2022-11-04T16:22:44;95868.56;;;17.45;66.16
48774;BME280;34576;0.000;0.000;2022-11-04T16:29:49;95880.25;;;17.44;66.25
48774;BME280;34576;0.000;0.000;2022-11-04T16:36:51;95891.72;;;17.45;65.90
48774;BME280;34576;0.000;0.000;2022-11-04T16:43:51;95898.38;;;17.42;65.80
48774;BME280;34576;0.000;0.000;2022-11-04T16:50:52;95909.91;;;17.37;65.79
48774;BME280;34576;0.000;0.000;2022-11-04T16:57:57;95934.31;;;17.39;65.69
48774;BME280;34576;0.000;0.000;2022-11-04T17:04:59;95945.72;;;17.40;65.94
48774;BME280;34576;0.000;0.000;2022-11-04T17:11:59;95959.31;;;17.38;65.91
48774;BME280;34576;0.000;0.000;2022-11-04T17:19:00;95967.56;;;17.37;65.61
48774;BME280;34576;0.000;0.000;2022-11-04T17:26:00;95968.69;;;17.36;65.55
48774;BME280;34576;0.000;0.000;2022-11-04T17:33:00;95987.13;;;17.46;66.02
48774;BME280;34576;0.000;0.000;2022-11-04T17:40:02;95994.09;;;17.42;67.28
48774;BME280;34576;0.000;0.000;2022-11-04T17:47:02;95998.13;;;17.39;67.95
48774;BME280;34576;0.000;0.000;2022-11-04T17:54:03;96015.66;;;17.40;68.15
48774;BME280;34576;0.000;0.000;2022-11-04T18:01:05;96030.25;;;17.43;67.73
48774;BME280;34576;0.000;0.000;2022-11-04T18:08:05;96034.47;;;17.44;69.11
48774;BME280;34576;0.000;0.000;2022-11-04T18:15:07;96051.22;;;17.45;69.69
48774;BME280;34576;0.000;0.000;2022-11-04T18:22:07;96063.13;;;17.47;68.40
48774;BME280;34576;0.000;0.000;2022-11-04T18:29:08;96072.38;;;17.55;68.35
48774;BME280;34576;0.000;0.000;2022-11-04T18:36:08;96083.50;;;17.57;68.85
48774;BME280;34576;0.000;0.000;2022-11-04T18:43:09;96102.03;;;17.62;69.17
48774;BME280;34576;0.000;0.000;2022-11-04T18:50:09;96098.81;;;17.65;69.44
48774;BME280;34576;0.000;0.000;2022-11-04T18:57:09;96111.53;;;17.68;70.19
48774;BME280;34576;0.000;0.000;2022-11-04T19:04:11;96124.00;;;17.73;70.41
48774;BME280;34576;0.000;0.000;2022-11-04T19:18:12;96139.09;;;17.77;71.10
48774;BME280;34576;0.000;0.000;2022-11-04T19:25:13;96150.50;;;17.78;71.07
48774;BME280;34576;0.000;0.000;2022-11-04T19:32:13;96152.38;;;17.77;71.95
48774;BME280;34576;0.000;0.000;2022-11-04T19:39:13;96169.94;;;17.79;72.53
48774;BME280;34576;0.000;0.000;2022-11-04T19:46:14;96181.06;;;17.81;72.41
48774;BME280;34576;0.000;0.000;2022-11-04T19:53:14;96190.38;;;17.83;72.78
48774;BME280;34576;0.000;0.000;2022-11-04T20:00:15;96198.06;;;17.85;72.67
48774;BME280;34576;0.000;0.000;2022-11-04T20:07:15;96209.19;;;17.87;73.10
48774;BME280;34576;0.000;0.000;2022-11-04T20:14:16;96212.94;;;17.86;73.07
48774;BME280;34576;0.000;0.000;2022-11-04T20:21:17;96229.69;;;17.86;73.27
48774;BME280;34576;0.000;0.000;2022-11-04T20:28:18;96227.81;;;17.87;73.35
48774;BME280;34576;0.000;0.000;2022-11-04T20:35:18;96237.88;;;17.90;73.34
48774;BME280;34576;0.000;0.000;2022-11-04T20:42:19;96245.63;;;17.91;72.76
48774;BME280;34576;0.000;0.000;2022-11-04T20:49:20;96262.38;;;17.92;73.38
48774;BME280;34576;0.000;0.000;2022-11-04T20:56:22;96270.38;;;17.92;73.27
48774;BME280;34576;0.000;0.000;2022-11-04T21:03:22;96284.97;;;17.94;73.40
48774;BME280;34576;0.000;0.000;2022-11-04T21:10:22;96297.19;;;17.96;73.66
48774;BME280;34576;0.000;0.000;2022-11-04T21:17:23;96306.75;;;17.97;73.83
48774;BME280;34576;0.000;0.000;2022-11-04T21:24:23;96310.25;;;17.97;73.55
48774;BME280;34576;0.000;0.000;2022-11-04T21:31:23;96306.47;;;17.98;73.73
48774;BME280;34576;0.000;0.000;2022-11-04T21:38:24;96327.78;;;17.98;74.00
48774;BME280;34576;0.000;0.000;2022-11-04T21:45:25;96330.16;;;18.00;73.93
48774;BME280;34576;0.000;0.000;2022-11-04T21:52:25;96338.13;;;18.00;73.73
48774;BME280;34576;0.000;0.000;2022-11-04T21:59:25;96343.16;;;18.01;73.72
48774;BME280;34576;0.000;0.000;2022-11-04T22:06:27;96344.47;;;18.04;73.48
48774;BME280;34576;0.000;0.000;2022-11-04T22:13:27;96359.38;;;18.05;73.39
48774;BME280;34576;0.000;0.000;2022-11-04T22:20:28;96367.34;;;18.05;73.48
48774;BME280;34576;0.000;0.000;2022-11-04T22:27:29;96362.53;;;18.07;73.27
48774;BME280;34576;0.000;0.000;2022-11-04T22:34:29;96360.16;;;18.05;73.21
48774;BME280;34576;0.000;0.000;2022-11-04T22:41:30;96370.03;;;18.05;73.42
48774;BME280;34576;0.000;0.000;2022-11-04T22:48:31;96374.78;;;18.08;73.33
48774;BME280;34576;0.000;0.000;2022-11-04T22:55:31;96385.41;;;18.08;73.39
48774;BME280;34576;0.000;0.000;2022-11-04T23:02:31;96389.16;;;18.07;73.27
48774;BME280;34576;0.000;0.000;2022-11-04T23:09:32;96387.00;;;18.09;73.59
48774;BME280;34576;0.000;0.000;2022-11-04T23:16:53;96389.16;;;18.07;73.78
48774;BME280;34576;0.000;0.000;2022-11-04T23:24:12;96389.16;;;18.07;73.71
48774;BME280;34576;0.000;0.000;2022-11-04T23:31:30;96397.66;;;18.09;74.36
48774;BME280;34576;0.000;0.000;2022-11-04T23:38:31;96404.84;;;17.79;66.14
48774;BME280;34576;0.000;0.000;2022-11-04T23:45:32;96403.03;;;17.74;66.34
48774;BME280;34576;0.000;0.000;2022-11-04T23:52:54;96403.03;;;17.74;66.42
